Mercury, Nevada
Current Conditions -  °F | °C
As of 7:52 AM on Thursday 27 Nov 2014 (Local Time) from KDRA Reporting Station
Clear Clear  
Wind Chill: 47°   Ceiling: Unl
Heat Index: 49°   Visibility: 10mi
Dew Point: 16°   Wind: 6mph
Humidity: 27%   Direction: 20°NNE
Pressure: 30.31"   Gusts: NA
Location:  36.66°N, 116°W
Report Text: KDRA 271552Z AUTO 02005KT 10SM CLR 09/M09 A3031 RMK AO2 SLP250 T00941089 $
Loading
Personal Weather Stations






























Interactive Weather Map New forecast layout! Learn more

10-Day Weather Forecast

Advertisements
Track Severe Weather on mobile